This is the latest recevied weather packets stored in our database for station/object OE5RBO. If no packets are shown the sender has not sent any weather packets the latest 1 day(s).
| Time | Temp. | Humidity | Pressure | Rain* | Wind** | Luminosity | Snow |
|---|---|---|---|---|---|---|---|
| 1778005139 | 17.22° C | 83% | 1005.3 hPa | 0 mm | 1.79 m/s, 21° | - | - |
| 1778004538 | 16.67° C | 83% | 1005.3 hPa | 0 mm | 1.79 m/s, 31° | - | - |
| 1778003938 | 16.67° C | 86% | 1005.3 hPa | 0 mm | 1.79 m/s, 42° | - | - |
| 1778003337 | 16.67° C | 84% | 1005.4 hPa | 0 mm | 1.34 m/s, 25° | - | - |
| 1778002737 | 17.22° C | 82% | 1005.5 hPa | 0 mm | 0.89 m/s, 338° | - | - |
| 1778002137 | 17.22° C | 80% | 1005.7 hPa | 0 mm | 0.45 m/s, 314° | - | - |
| 1778001537 | 17.22° C | 84% | 1005.8 hPa | 0 mm | 1.79 m/s, 51° | - | - |
| 1778000336 | 17.78° C | 76% | 1005.7 hPa | 0 mm | 1.79 m/s, 173° | - | - |
| 1777999735 | 17.78° C | 79% | 1005.6 hPa | 0 mm | 3.13 m/s, 193° | - | - |
| 1777999135 | 17.78° C | 79% | 1005.3 hPa | 0 mm | 3.13 m/s, 207° | - | - |
| 1777998535 | 19.44° C | 67% | 1005.1 hPa | 0 mm | 6.71 m/s, 200° | - | - |
| 1777997934 | 23.33° C | 45% | 1004.2 hPa | 0 mm | 2.24 m/s, 191° | - | - |
| 1777997334 | 23.89° C | 44% | 1004 hPa | 0 mm | 0.45 m/s, 205° | - | - |
| 1777995533 | 24.44° C | 48% | 1003.9 hPa | 0 mm | 1.79 m/s, 288° | - | - |
| 1777994932 | 24.44° C | 48% | 1003.9 hPa | 0 mm | 0.89 m/s, 7° | - | - |
| 1777994332 | 25° C | 45% | 1003.9 hPa | 0 mm | 0.89 m/s, 288° | - | - |
| 1777993732 | 25° C | 48% | 1003.9 hPa | 0 mm | 0.89 m/s, 288° | - | - |
| 1777993132 | 25° C | 44% | 1004 hPa | 0 mm | 0.45 m/s, 6° | - | - |
| 1777992531 | 25° C | 46% | 1004 hPa | 0 mm | 1.34 m/s, 288° | - | - |
| 1777991931 | 25.56° C | 44% | 1004 hPa | 0 mm | 2.24 m/s, 49° | - | - |
| 1777991330 | 25.56° C | 41% | 1004 hPa | 0 mm | 0.45 m/s, 346° | - | - |
| 1777990730 | 26.11° C | 40% | 1004.1 hPa | 0 mm | 0 m/s | - | - |
| 1777990130 | 25.56° C | 41% | 1004.2 hPa | 0 mm | 0.89 m/s, 44° | - | - |
| 1777989529 | 25.56° C | 40% | 1004.3 hPa | 0 mm | 1.79 m/s, 10° | - | - |
| 1777988929 | 26.67° C | 38% | 1004.4 hPa | 0 mm | 0.45 m/s, 349° | - | - |
* Rain since midnight (hover to see other rain measurements)
** Current wind speed in m/s (hover to see current wind gust speed)